sensor_id;sensor_type;location;lat;lon;timestamp;P1;durP1;ratioP1;P2;durP2;ratioP2
21743;SDS011;11034;48.556;9.342;2024-03-02T00:01:07;24.52;;;14.15;;
21743;SDS011;11034;48.556;9.342;2024-03-02T00:03:37;24.60;;;15.20;;
21743;SDS011;11034;48.556;9.342;2024-03-02T00:06:06;28.15;;;15.85;;
21743;SDS011;11034;48.556;9.342;2024-03-02T00:08:34;22.88;;;15.05;;
21743;SDS011;11034;48.556;9.342;2024-03-02T00:11:03;21.52;;;12.98;;
21743;SDS011;11034;48.556;9.342;2024-03-02T00:13:31;25.85;;;14.80;;
21743;SDS011;11034;48.556;9.342;2024-03-02T00:16:01;22.95;;;14.68;;
21743;SDS011;11034;48.556;9.342;2024-03-02T00:18:34;22.23;;;14.52;;
21743;SDS011;11034;48.556;9.342;2024-03-02T00:21:03;22.98;;;14.75;;
21743;SDS011;11034;48.556;9.342;2024-03-02T00:23:35;23.27;;;14.07;;
21743;SDS011;11034;48.556;9.342;2024-03-02T00:26:05;23.77;;;15.10;;
21743;SDS011;11034;48.556;9.342;2024-03-02T00:28:35;25.10;;;15.20;;
21743;SDS011;11034;48.556;9.342;2024-03-02T00:31:05;25.15;;;14.98;;
21743;SDS011;11034;48.556;9.342;2024-03-02T00:33:36;25.08;;;15.45;;
21743;SDS011;11034;48.556;9.342;2024-03-02T00:36:09;22.10;;;14.05;;
21743;SDS011;11034;48.556;9.342;2024-03-02T00:38:42;25.77;;;15.70;;
21743;SDS011;11034;48.556;9.342;2024-03-02T00:41:17;24.73;;;15.25;;
21743;SDS011;11034;48.556;9.342;2024-03-02T00:43:56;23.63;;;14.63;;
21743;SDS011;11034;48.556;9.342;2024-03-02T00:46:26;22.85;;;14.52;;
21743;SDS011;11034;48.556;9.342;2024-03-02T00:48:58;23.02;;;14.50;;
21743;SDS011;11034;48.556;9.342;2024-03-02T00:51:28;24.15;;;15.10;;
21743;SDS011;11034;48.556;9.342;2024-03-02T00:53:58;24.10;;;15.50;;
21743;SDS011;11034;48.556;9.342;2024-03-02T00:56:27;26.52;;;15.15;;
21743;SDS011;11034;48.556;9.342;2024-03-02T00:58:55;25.58;;;15.63;;
21743;SDS011;11034;48.556;9.342;2024-03-02T01:01:24;27.88;;;15.90;;
21743;SDS011;11034;48.556;9.342;2024-03-02T01:03:52;26.77;;;16.50;;
21743;SDS011;11034;48.556;9.342;2024-03-02T01:06:22;25.35;;;14.93;;
21743;SDS011;11034;48.556;9.342;2024-03-02T01:08:50;21.98;;;14.32;;
21743;SDS011;11034;48.556;9.342;2024-03-02T01:11:19;26.80;;;15.13;;
21743;SDS011;11034;48.556;9.342;2024-03-02T01:13:49;23.80;;;13.88;;
21743;SDS011;11034;48.556;9.342;2024-03-02T01:16:18;24.35;;;15.38;;
21743;SDS011;11034;48.556;9.342;2024-03-02T01:18:47;24.52;;;15.45;;
21743;SDS011;11034;48.556;9.342;2024-03-02T01:21:15;26.15;;;15.55;;
21743;SDS011;11034;48.556;9.342;2024-03-02T01:23:45;25.45;;;15.23;;
21743;SDS011;11034;48.556;9.342;2024-03-02T01:26:13;26.08;;;15.57;;
21743;SDS011;11034;48.556;9.342;2024-03-02T01:28:41;24.55;;;15.77;;
21743;SDS011;11034;48.556;9.342;2024-03-02T01:31:09;24.58;;;15.75;;
21743;SDS011;11034;48.556;9.342;2024-03-02T01:33:37;27.60;;;16.08;;
21743;SDS011;11034;48.556;9.342;2024-03-02T01:36:05;26.00;;;15.35;;
21743;SDS011;11034;48.556;9.342;2024-03-02T01:38:35;24.13;;;15.23;;
21743;SDS011;11034;48.556;9.342;2024-03-02T01:41:04;26.02;;;15.38;;
21743;SDS011;11034;48.556;9.342;2024-03-02T01:43:32;24.38;;;14.85;;
21743;SDS011;11034;48.556;9.342;2024-03-02T01:46:03;22.52;;;14.60;;
21743;SDS011;11034;48.556;9.342;2024-03-02T01:48:31;24.83;;;15.25;;
21743;SDS011;11034;48.556;9.342;2024-03-02T01:51:00;22.02;;;14.38;;
21743;SDS011;11034;48.556;9.342;2024-03-02T01:53:28;21.33;;;13.70;;
21743;SDS011;11034;48.556;9.342;2024-03-02T01:55:58;23.55;;;14.00;;
21743;SDS011;11034;48.556;9.342;2024-03-02T01:58:29;22.48;;;13.98;;
21743;SDS011;11034;48.556;9.342;2024-03-02T02:00:57;24.40;;;14.85;;
21743;SDS011;11034;48.556;9.342;2024-03-02T02:03:26;22.80;;;14.50;;
21743;SDS011;11034;48.556;9.342;2024-03-02T02:05:54;23.42;;;14.43;;
21743;SDS011;11034;48.556;9.342;2024-03-02T02:08:22;22.85;;;13.63;;
21743;SDS011;11034;48.556;9.342;2024-03-02T02:10:50;22.00;;;13.93;;
21743;SDS011;11034;48.556;9.342;2024-03-02T02:13:19;20.30;;;12.57;;
21743;SDS011;11034;48.556;9.342;2024-03-02T02:15:48;21.25;;;13.30;;
21743;SDS011;11034;48.556;9.342;2024-03-02T02:18:16;20.20;;;12.57;;
21743;SDS011;11034;48.556;9.342;2024-03-02T02:20:45;19.48;;;12.68;;
21743;SDS011;11034;48.556;9.342;2024-03-02T02:23:14;22.48;;;13.80;;
21743;SDS011;11034;48.556;9.342;2024-03-02T02:25:42;21.13;;;13.13;;
21743;SDS011;11034;48.556;9.342;2024-03-02T02:28:10;22.75;;;14.48;;
21743;SDS011;11034;48.556;9.342;2024-03-02T02:30:38;18.48;;;12.38;;
21743;SDS011;11034;48.556;9.342;2024-03-02T02:33:06;19.15;;;11.93;;
21743;SDS011;11034;48.556;9.342;2024-03-02T02:35:35;19.33;;;12.18;;
21743;SDS011;11034;48.556;9.342;2024-03-02T02:38:03;19.13;;;12.15;;
21743;SDS011;11034;48.556;9.342;2024-03-02T02:40:34;17.33;;;11.10;;
21743;SDS011;11034;48.556;9.342;2024-03-02T02:43:02;19.52;;;11.55;;
21743;SDS011;11034;48.556;9.342;2024-03-02T02:45:30;16.27;;;10.88;;
21743;SDS011;11034;48.556;9.342;2024-03-02T02:47:58;18.13;;;11.10;;
21743;SDS011;11034;48.556;9.342;2024-03-02T02:50:28;20.75;;;12.07;;
21743;SDS011;11034;48.556;9.342;2024-03-02T02:52:57;21.15;;;13.32;;
21743;SDS011;11034;48.556;9.342;2024-03-02T02:55:25;23.17;;;13.38;;
21743;SDS011;11034;48.556;9.342;2024-03-02T02:57:54;20.48;;;12.25;;
21743;SDS011;11034;48.556;9.342;2024-03-02T03:00:22;20.48;;;11.70;;
21743;SDS011;11034;48.556;9.342;2024-03-02T03:02:51;19.35;;;11.38;;
21743;SDS011;11034;48.556;9.342;2024-03-02T03:05:19;16.90;;;10.82;;
21743;SDS011;11034;48.556;9.342;2024-03-02T03:07:47;18.02;;;11.30;;
21743;SDS011;11034;48.556;9.342;2024-03-02T03:10:17;18.38;;;10.93;;
21743;SDS011;11034;48.556;9.342;2024-03-02T03:12:48;14.93;;;9.63;;
21743;SDS011;11034;48.556;9.342;2024-03-02T03:15:18;15.20;;;10.57;;
21743;SDS011;11034;48.556;9.342;2024-03-02T03:17:46;19.33;;;11.07;;
21743;SDS011;11034;48.556;9.342;2024-03-02T03:20:14;16.85;;;10.63;;
21743;SDS011;11034;48.556;9.342;2024-03-02T03:22:43;17.48;;;10.68;;
21743;SDS011;11034;48.556;9.342;2024-03-02T03:25:11;16.50;;;10.15;;
21743;SDS011;11034;48.556;9.342;2024-03-02T03:27:39;16.88;;;10.32;;
21743;SDS011;11034;48.556;9.342;2024-03-02T03:30:08;16.52;;;9.70;;
21743;SDS011;11034;48.556;9.342;2024-03-02T03:32:38;16.58;;;10.52;;
21743;SDS011;11034;48.556;9.342;2024-03-02T03:35:07;15.40;;;9.15;;
21743;SDS011;11034;48.556;9.342;2024-03-02T03:37:35;15.82;;;9.73;;
21743;SDS011;11034;48.556;9.342;2024-03-02T03:40:03;13.55;;;9.25;;
21743;SDS011;11034;48.556;9.342;2024-03-02T03:42:37;18.52;;;9.27;;
21743;SDS011;11034;48.556;9.342;2024-03-02T03:45:05;13.75;;;8.80;;
21743;SDS011;11034;48.556;9.342;2024-03-02T03:47:34;14.27;;;9.80;;
21743;SDS011;11034;48.556;9.342;2024-03-02T03:50:04;14.85;;;9.63;;
21743;SDS011;11034;48.556;9.342;2024-03-02T03:52:34;14.77;;;9.45;;
21743;SDS011;11034;48.556;9.342;2024-03-02T03:55:02;14.73;;;8.65;;
21743;SDS011;11034;48.556;9.342;2024-03-02T03:57:31;14.82;;;9.40;;
21743;SDS011;11034;48.556;9.342;2024-03-02T04:00:00;13.60;;;9.02;;
21743;SDS011;11034;48.556;9.342;2024-03-02T04:02:28;14.30;;;9.30;;
21743;SDS011;11034;48.556;9.342;2024-03-02T04:04:56;16.17;;;9.60;;
21743;SDS011;11034;48.556;9.342;2024-03-02T04:07:25;14.45;;;9.35;;
21743;SDS011;11034;48.556;9.342;2024-03-02T04:09:53;13.63;;;8.90;;
21743;SDS011;11034;48.556;9.342;2024-03-02T04:12:21;13.32;;;8.35;;
21743;SDS011;11034;48.556;9.342;2024-03-02T04:14:49;12.73;;;8.43;;
21743;SDS011;11034;48.556;9.342;2024-03-02T04:17:17;13.45;;;8.38;;
21743;SDS011;11034;48.556;9.342;2024-03-02T04:19:46;12.80;;;8.23;;
21743;SDS011;11034;48.556;9.342;2024-03-02T04:22:14;14.07;;;8.88;;
21743;SDS011;11034;48.556;9.342;2024-03-02T04:24:52;12.63;;;8.27;;
21743;SDS011;11034;48.556;9.342;2024-03-02T04:27:20;12.95;;;8.80;;
21743;SDS011;11034;48.556;9.342;2024-03-02T04:29:48;15.85;;;9.02;;
21743;SDS011;11034;48.556;9.342;2024-03-02T04:32:17;12.35;;;8.00;;
21743;SDS011;11034;48.556;9.342;2024-03-02T04:34:46;9.77;;;7.22;;
21743;SDS011;11034;48.556;9.342;2024-03-02T04:37:14;11.05;;;6.43;;
21743;SDS011;11034;48.556;9.342;2024-03-02T04:39:42;11.98;;;7.65;;
21743;SDS011;11034;48.556;9.342;2024-03-02T04:42:12;11.25;;;7.35;;
21743;SDS011;11034;48.556;9.342;2024-03-02T04:44:40;10.38;;;6.90;;
21743;SDS011;11034;48.556;9.342;2024-03-02T04:47:08;11.57;;;7.63;;
21743;SDS011;11034;48.556;9.342;2024-03-02T04:49:36;11.77;;;7.43;;
21743;SDS011;11034;48.556;9.342;2024-03-02T04:52:04;13.00;;;7.97;;
21743;SDS011;11034;48.556;9.342;2024-03-02T04:54:32;11.23;;;7.43;;
21743;SDS011;11034;48.556;9.342;2024-03-02T04:57:22;11.25;;;7.40;;
21743;SDS011;11034;48.556;9.342;2024-03-02T04:59:50;11.98;;;7.82;;
21743;SDS011;11034;48.556;9.342;2024-03-02T05:02:18;10.45;;;6.88;;
21743;SDS011;11034;48.556;9.342;2024-03-02T05:04:46;11.38;;;6.68;;
21743;SDS011;11034;48.556;9.342;2024-03-02T05:07:15;10.70;;;7.00;;
21743;SDS011;11034;48.556;9.342;2024-03-02T05:09:43;10.90;;;6.90;;
21743;SDS011;11034;48.556;9.342;2024-03-02T05:12:11;10.68;;;7.45;;
21743;SDS011;11034;48.556;9.342;2024-03-02T05:15:03;10.75;;;7.07;;
21743;SDS011;11034;48.556;9.342;2024-03-02T05:17:33;12.73;;;7.47;;
21743;SDS011;11034;48.556;9.342;2024-03-02T05:20:02;9.27;;;6.15;;
21743;SDS011;11034;48.556;9.342;2024-03-02T05:22:30;10.57;;;6.78;;
21743;SDS011;11034;48.556;9.342;2024-03-02T05:25:00;10.98;;;7.10;;
21743;SDS011;11034;48.556;9.342;2024-03-02T05:27:28;11.60;;;7.15;;
21743;SDS011;11034;48.556;9.342;2024-03-02T05:29:57;11.10;;;6.70;;
21743;SDS011;11034;48.556;9.342;2024-03-02T05:32:27;10.57;;;6.30;;
21743;SDS011;11034;48.556;9.342;2024-03-02T05:34:55;10.63;;;6.45;;
21743;SDS011;11034;48.556;9.342;2024-03-02T05:37:23;8.85;;;6.45;;
21743;SDS011;11034;48.556;9.342;2024-03-02T05:39:51;8.43;;;5.40;;
21743;SDS011;11034;48.556;9.342;2024-03-02T05:42:20;9.10;;;5.20;;
21743;SDS011;11034;48.556;9.342;2024-03-02T05:44:48;7.55;;;5.13;;
21743;SDS011;11034;48.556;9.342;2024-03-02T05:47:16;5.72;;;4.30;;
21743;SDS011;11034;48.556;9.342;2024-03-02T05:49:46;7.20;;;4.63;;
21743;SDS011;11034;48.556;9.342;2024-03-02T05:52:14;8.02;;;5.30;;
21743;SDS011;11034;48.556;9.342;2024-03-02T05:54:42;7.35;;;4.15;;
21743;SDS011;11034;48.556;9.342;2024-03-02T05:57:10;9.48;;;5.88;;
21743;SDS011;11034;48.556;9.342;2024-03-02T05:59:58;8.27;;;5.65;;
21743;SDS011;11034;48.556;9.342;2024-03-02T06:02:26;10.75;;;6.28;;
21743;SDS011;11034;48.556;9.342;2024-03-02T06:04:55;10.20;;;5.95;;
21743;SDS011;11034;48.556;9.342;2024-03-02T06:07:24;10.10;;;5.22;;
21743;SDS011;11034;48.556;9.342;2024-03-02T06:09:52;6.85;;;5.32;;
21743;SDS011;11034;48.556;9.342;2024-03-02T06:12:20;7.30;;;4.90;;
21743;SDS011;11034;48.556;9.342;2024-03-02T06:14:48;7.88;;;5.35;;
21743;SDS011;11034;48.556;9.342;2024-03-02T06:17:17;7.55;;;4.90;;
21743;SDS011;11034;48.556;9.342;2024-03-02T06:19:45;6.57;;;4.70;;
21743;SDS011;11034;48.556;9.342;2024-03-02T06:22:15;6.88;;;4.93;;
21743;SDS011;11034;48.556;9.342;2024-03-02T06:24:45;6.10;;;4.55;;
21743;SDS011;11034;48.556;9.342;2024-03-02T06:27:13;5.38;;;4.05;;
21743;SDS011;11034;48.556;9.342;2024-03-02T06:29:42;6.07;;;4.53;;
21743;SDS011;11034;48.556;9.342;2024-03-02T06:32:10;6.00;;;4.13;;
21743;SDS011;11034;48.556;9.342;2024-03-02T06:34:39;5.72;;;3.80;;
21743;SDS011;11034;48.556;9.342;2024-03-02T06:37:08;6.30;;;4.32;;
21743;SDS011;11034;48.556;9.342;2024-03-02T06:39:38;6.55;;;4.35;;
21743;SDS011;11034;48.556;9.342;2024-03-02T06:42:06;6.60;;;4.85;;
21743;SDS011;11034;48.556;9.342;2024-03-02T06:44:34;6.80;;;4.30;;
21743;SDS011;11034;48.556;9.342;2024-03-02T06:47:03;7.70;;;4.88;;
21743;SDS011;11034;48.556;9.342;2024-03-02T06:49:31;5.85;;;4.47;;
21743;SDS011;11034;48.556;9.342;2024-03-02T06:52:00;5.95;;;4.13;;
21743;SDS011;11034;48.556;9.342;2024-03-02T06:54:29;7.68;;;4.50;;
21743;SDS011;11034;48.556;9.342;2024-03-02T06:56:58;7.07;;;4.63;;
21743;SDS011;11034;48.556;9.342;2024-03-02T06:59:26;6.55;;;4.72;;
21743;SDS011;11034;48.556;9.342;2024-03-02T07:01:54;6.45;;;4.85;;
21743;SDS011;11034;48.556;9.342;2024-03-02T07:04:23;6.15;;;4.40;;
21743;SDS011;11034;48.556;9.342;2024-03-02T07:06:51;6.50;;;4.57;;
21743;SDS011;11034;48.556;9.342;2024-03-02T07:09:19;7.78;;;4.88;;
21743;SDS011;11034;48.556;9.342;2024-03-02T07:11:49;5.95;;;4.40;;
21743;SDS011;11034;48.556;9.342;2024-03-02T07:14:19;7.45;;;4.72;;
21743;SDS011;11034;48.556;9.342;2024-03-02T07:16:47;5.85;;;4.35;;
21743;SDS011;11034;48.556;9.342;2024-03-02T07:19:15;6.97;;;4.68;;
21743;SDS011;11034;48.556;9.342;2024-03-02T07:21:44;6.68;;;4.82;;
21743;SDS011;11034;48.556;9.342;2024-03-02T07:24:12;6.38;;;4.65;;
21743;SDS011;11034;48.556;9.342;2024-03-02T07:26:42;4.97;;;3.78;;
21743;SDS011;11034;48.556;9.342;2024-03-02T07:29:13;6.95;;;4.55;;
21743;SDS011;11034;48.556;9.342;2024-03-02T07:31:43;6.38;;;4.75;;
21743;SDS011;11034;48.556;9.342;2024-03-02T07:34:11;6.15;;;4.30;;
21743;SDS011;11034;48.556;9.342;2024-03-02T07:36:40;6.72;;;4.72;;
21743;SDS011;11034;48.556;9.342;2024-03-02T07:39:09;6.30;;;4.43;;
21743;SDS011;11034;48.556;9.342;2024-03-02T07:41:43;4.97;;;4.00;;
21743;SDS011;11034;48.556;9.342;2024-03-02T07:44:13;5.28;;;3.97;;
21743;SDS011;11034;48.556;9.342;2024-03-02T07:46:41;5.95;;;4.60;;
21743;SDS011;11034;48.556;9.342;2024-03-02T07:49:12;6.35;;;3.92;;
21743;SDS011;11034;48.556;9.342;2024-03-02T07:51:43;5.70;;;3.90;;
21743;SDS011;11034;48.556;9.342;2024-03-02T07:54:12;6.75;;;4.90;;
21743;SDS011;11034;48.556;9.342;2024-03-02T07:56:40;5.70;;;4.10;;
21743;SDS011;11034;48.556;9.342;2024-03-02T07:59:08;7.65;;;4.25;;
21743;SDS011;11034;48.556;9.342;2024-03-02T08:01:36;5.57;;;4.15;;
21743;SDS011;11034;48.556;9.342;2024-03-02T08:04:06;5.10;;;4.20;;
21743;SDS011;11034;48.556;9.342;2024-03-02T08:06:35;5.53;;;4.20;;
21743;SDS011;11034;48.556;9.342;2024-03-02T08:09:03;5.78;;;4.18;;
21743;SDS011;11034;48.556;9.342;2024-03-02T08:11:36;6.43;;;4.28;;
21743;SDS011;11034;48.556;9.342;2024-03-02T08:14:05;6.53;;;4.47;;
21743;SDS011;11034;48.556;9.342;2024-03-02T08:16:33;7.13;;;4.45;;
21743;SDS011;11034;48.556;9.342;2024-03-02T08:19:01;6.43;;;4.18;;
21743;SDS011;11034;48.556;9.342;2024-03-02T08:21:31;6.32;;;4.38;;
21743;SDS011;11034;48.556;9.342;2024-03-02T08:24:02;5.90;;;4.32;;
21743;SDS011;11034;48.556;9.342;2024-03-02T08:26:30;6.57;;;4.35;;
21743;SDS011;11034;48.556;9.342;2024-03-02T08:28:59;7.88;;;4.60;;
21743;SDS011;11034;48.556;9.342;2024-03-02T08:31:28;6.13;;;4.40;;
21743;SDS011;11034;48.556;9.342;2024-03-02T08:33:56;6.70;;;4.68;;
21743;SDS011;11034;48.556;9.342;2024-03-02T08:36:25;5.63;;;4.28;;
21743;SDS011;11034;48.556;9.342;2024-03-02T08:38:55;6.07;;;4.63;;
21743;SDS011;11034;48.556;9.342;2024-03-02T08:41:23;5.65;;;4.50;;
21743;SDS011;11034;48.556;9.342;2024-03-02T08:43:51;7.18;;;4.30;;
21743;SDS011;11034;48.556;9.342;2024-03-02T08:46:19;7.38;;;4.30;;
21743;SDS011;11034;48.556;9.342;2024-03-02T08:48:48;6.15;;;4.50;;
21743;SDS011;11034;48.556;9.342;2024-03-02T08:51:16;6.93;;;4.03;;
21743;SDS011;11034;48.556;9.342;2024-03-02T08:53:44;6.65;;;4.45;;
21743;SDS011;11034;48.556;9.342;2024-03-02T08:56:13;4.75;;;3.25;;
21743;SDS011;11034;48.556;9.342;2024-03-02T08:58:42;5.03;;;3.42;;
21743;SDS011;11034;48.556;9.342;2024-03-02T09:01:11;5.85;;;3.78;;
21743;SDS011;11034;48.556;9.342;2024-03-02T09:03:39;5.05;;;3.08;;
21743;SDS011;11034;48.556;9.342;2024-03-02T09:06:07;6.05;;;3.40;;
21743;SDS011;11034;48.556;9.342;2024-03-02T09:08:35;9.10;;;3.58;;
21743;SDS011;11034;48.556;9.342;2024-03-02T09:11:04;5.63;;;3.40;;
21743;SDS011;11034;48.556;9.342;2024-03-02T09:13:35;5.20;;;3.70;;
21743;SDS011;11034;48.556;9.342;2024-03-02T09:16:03;5.80;;;3.78;;
21743;SDS011;11034;48.556;9.342;2024-03-02T09:18:32;8.93;;;3.72;;
21743;SDS011;11034;48.556;9.342;2024-03-02T09:21:00;18.20;;;4.03;;
21743;SDS011;11034;48.556;9.342;2024-03-02T09:23:28;10.10;;;3.42;;
21743;SDS011;11034;48.556;9.342;2024-03-02T09:25:57;5.28;;;3.67;;
21743;SDS011;11034;48.556;9.342;2024-03-02T09:28:25;5.85;;;3.78;;
21743;SDS011;11034;48.556;9.342;2024-03-02T09:30:54;4.63;;;3.63;;
21743;SDS011;11034;48.556;9.342;2024-03-02T09:33:26;6.88;;;3.70;;
21743;SDS011;11034;48.556;9.342;2024-03-02T09:35:54;11.20;;;3.65;;
21743;SDS011;11034;48.556;9.342;2024-03-02T09:38:22;6.32;;;3.35;;
21743;SDS011;11034;48.556;9.342;2024-03-02T09:40:50;4.68;;;3.20;;
21743;SDS011;11034;48.556;9.342;2024-03-02T09:43:18;5.20;;;3.58;;
21743;SDS011;11034;48.556;9.342;2024-03-02T09:45:47;4.18;;;3.20;;
21743;SDS011;11034;48.556;9.342;2024-03-02T09:48:17;4.40;;;3.28;;
21743;SDS011;11034;48.556;9.342;2024-03-02T09:50:46;4.57;;;3.15;;
21743;SDS011;11034;48.556;9.342;2024-03-02T09:53:15;4.43;;;3.00;;
21743;SDS011;11034;48.556;9.342;2024-03-02T09:55:45;3.15;;;2.67;;
21743;SDS011;11034;48.556;9.342;2024-03-02T09:58:13;4.38;;;2.92;;
21743;SDS011;11034;48.556;9.342;2024-03-02T10:00:42;7.13;;;2.65;;
21743;SDS011;11034;48.556;9.342;2024-03-02T10:03:11;3.95;;;2.83;;
21743;SDS011;11034;48.556;9.342;2024-03-02T10:05:41;3.83;;;2.88;;
21743;SDS011;11034;48.556;9.342;2024-03-02T10:08:09;4.63;;;2.70;;
21743;SDS011;11034;48.556;9.342;2024-03-02T10:10:38;3.55;;;2.53;;
21743;SDS011;11034;48.556;9.342;2024-03-02T10:13:08;3.30;;;2.65;;
21743;SDS011;11034;48.556;9.342;2024-03-02T10:15:39;3.78;;;2.45;;
21743;SDS011;11034;48.556;9.342;2024-03-02T10:18:09;4.00;;;2.20;;
21743;SDS011;11034;48.556;9.342;2024-03-02T10:20:40;2.80;;;2.08;;
21743;SDS011;11034;48.556;9.342;2024-03-02T10:23:10;2.33;;;2.03;;
21743;SDS011;11034;48.556;9.342;2024-03-02T10:25:40;3.08;;;2.03;;
21743;SDS011;11034;48.556;9.342;2024-03-02T10:28:22;2.92;;;2.13;;
21743;SDS011;11034;48.556;9.342;2024-03-02T10:30:50;3.35;;;2.15;;
21743;SDS011;11034;48.556;9.342;2024-03-02T10:33:20;3.13;;;1.90;;
21743;SDS011;11034;48.556;9.342;2024-03-02T10:35:50;3.45;;;2.20;;
21743;SDS011;11034;48.556;9.342;2024-03-02T10:38:18;3.35;;;2.20;;
21743;SDS011;11034;48.556;9.342;2024-03-02T10:40:49;2.22;;;1.80;;
21743;SDS011;11034;48.556;9.342;2024-03-02T10:43:17;3.08;;;2.38;;
21743;SDS011;11034;48.556;9.342;2024-03-02T10:45:47;2.55;;;1.90;;
21743;SDS011;11034;48.556;9.342;2024-03-02T10:48:17;2.47;;;1.80;;
21743;SDS011;11034;48.556;9.342;2024-03-02T10:50:45;2.40;;;1.88;;
21743;SDS011;11034;48.556;9.342;2024-03-02T10:53:14;4.43;;;2.00;;
21743;SDS011;11034;48.556;9.342;2024-03-02T10:55:43;5.57;;;1.83;;
21743;SDS011;11034;48.556;9.342;2024-03-02T10:58:11;1.77;;;1.52;;
21743;SDS011;11034;48.556;9.342;2024-03-02T11:00:41;2.70;;;1.80;;
21743;SDS011;11034;48.556;9.342;2024-03-02T11:03:12;2.33;;;1.70;;
21743;SDS011;11034;48.556;9.342;2024-03-02T11:05:43;2.88;;;1.75;;
21743;SDS011;11034;48.556;9.342;2024-03-02T11:08:12;4.63;;;1.95;;
21743;SDS011;11034;48.556;9.342;2024-03-02T11:10:48;2.55;;;1.77;;
21743;SDS011;11034;48.556;9.342;2024-03-02T11:13:20;2.58;;;1.80;;
21743;SDS011;11034;48.556;9.342;2024-03-02T11:15:52;3.30;;;1.65;;
21743;SDS011;11034;48.556;9.342;2024-03-02T11:18:25;2.30;;;1.60;;
21743;SDS011;11034;48.556;9.342;2024-03-02T11:20:55;4.10;;;2.08;;
21743;SDS011;11034;48.556;9.342;2024-03-02T11:23:32;2.67;;;1.92;;
21743;SDS011;11034;48.556;9.342;2024-03-02T11:26:16;1.90;;;1.60;;
21743;SDS011;11034;48.556;9.342;2024-03-02T11:28:45;1.80;;;1.23;;
21743;SDS011;11034;48.556;9.342;2024-03-02T11:31:13;3.60;;;1.45;;
21743;SDS011;11034;48.556;9.342;2024-03-02T11:33:41;1.52;;;1.23;;
21743;SDS011;11034;48.556;9.342;2024-03-02T11:36:09;2.15;;;1.50;;
21743;SDS011;11034;48.556;9.342;2024-03-02T11:38:39;2.33;;;1.73;;
21743;SDS011;11034;48.556;9.342;2024-03-02T11:41:11;1.58;;;1.30;;
21743;SDS011;11034;48.556;9.342;2024-03-02T11:43:41;1.83;;;1.38;;
21743;SDS011;11034;48.556;9.342;2024-03-02T11:46:12;1.40;;;1.27;;
21743;SDS011;11034;48.556;9.342;2024-03-02T11:48:42;1.67;;;1.35;;
21743;SDS011;11034;48.556;9.342;2024-03-02T11:51:10;1.67;;;1.20;;
21743;SDS011;11034;48.556;9.342;2024-03-02T11:53:41;1.70;;;1.30;;
21743;SDS011;11034;48.556;9.342;2024-03-02T11:56:10;1.85;;;1.08;;
21743;SDS011;11034;48.556;9.342;2024-03-02T11:58:41;2.40;;;1.30;;
21743;SDS011;11034;48.556;9.342;2024-03-02T12:01:10;1.45;;;1.10;;
21743;SDS011;11034;48.556;9.342;2024-03-02T12:03:39;1.45;;;1.00;;
21743;SDS011;11034;48.556;9.342;2024-03-02T12:06:08;1.80;;;1.10;;
21743;SDS011;11034;48.556;9.342;2024-03-02T12:08:36;1.60;;;0.90;;
21743;SDS011;11034;48.556;9.342;2024-03-02T12:11:06;2.88;;;1.27;;
21743;SDS011;11034;48.556;9.342;2024-03-02T12:13:34;1.95;;;1.10;;
21743;SDS011;11034;48.556;9.342;2024-03-02T12:16:03;1.83;;;1.40;;
21743;SDS011;11034;48.556;9.342;2024-03-02T12:18:32;1.60;;;1.40;;
21743;SDS011;11034;48.556;9.342;2024-03-02T12:21:00;1.40;;;1.00;;
21743;SDS011;11034;48.556;9.342;2024-03-02T12:23:30;2.38;;;1.02;;
21743;SDS011;11034;48.556;9.342;2024-03-02T12:25:58;5.90;;;3.85;;
21743;SDS011;11034;48.556;9.342;2024-03-02T12:28:28;3.63;;;1.35;;
21743;SDS011;11034;48.556;9.342;2024-03-02T12:30:58;2.28;;;1.48;;
21743;SDS011;11034;48.556;9.342;2024-03-02T12:33:26;3.08;;;1.65;;
21743;SDS011;11034;48.556;9.342;2024-03-02T12:35:56;2.97;;;1.50;;
21743;SDS011;11034;48.556;9.342;2024-03-02T12:38:25;1.85;;;1.23;;
21743;SDS011;11034;48.556;9.342;2024-03-02T12:40:53;1.90;;;1.30;;
21743;SDS011;11034;48.556;9.342;2024-03-02T12:43:21;1.60;;;1.15;;
21743;SDS011;11034;48.556;9.342;2024-03-02T12:45:52;1.10;;;1.00;;
21743;SDS011;11034;48.556;9.342;2024-03-02T12:48:22;3.03;;;1.25;;
21743;SDS011;11034;48.556;9.342;2024-03-02T12:50:50;1.58;;;0.95;;
21743;SDS011;11034;48.556;9.342;2024-03-02T12:53:18;1.15;;;1.00;;
21743;SDS011;11034;48.556;9.342;2024-03-02T12:55:48;1.63;;;1.15;;
21743;SDS011;11034;48.556;9.342;2024-03-02T12:58:18;1.33;;;1.20;;
21743;SDS011;11034;48.556;9.342;2024-03-02T13:00:46;1.40;;;1.25;;
21743;SDS011;11034;48.556;9.342;2024-03-02T13:03:16;1.42;;;1.10;;
21743;SDS011;11034;48.556;9.342;2024-03-02T13:05:50;1.85;;;0.98;;
21743;SDS011;11034;48.556;9.342;2024-03-02T13:08:19;1.25;;;1.15;;
21743;SDS011;11034;48.556;9.342;2024-03-02T13:10:47;2.85;;;2.00;;
21743;SDS011;11034;48.556;9.342;2024-03-02T13:13:16;1.80;;;1.20;;
21743;SDS011;11034;48.556;9.342;2024-03-02T13:15:44;2.38;;;1.23;;
21743;SDS011;11034;48.556;9.342;2024-03-02T13:18:12;0.95;;;0.93;;
21743;SDS011;11034;48.556;9.342;2024-03-02T13:20:42;1.77;;;1.10;;
21743;SDS011;11034;48.556;9.342;2024-03-02T13:23:10;1.45;;;1.25;;
21743;SDS011;11034;48.556;9.342;2024-03-02T13:25:38;1.65;;;1.00;;
21743;SDS011;11034;48.556;9.342;2024-03-02T13:28:06;1.13;;;0.88;;
21743;SDS011;11034;48.556;9.342;2024-03-02T13:30:35;1.58;;;1.20;;
21743;SDS011;11034;48.556;9.342;2024-03-02T13:33:04;1.73;;;1.10;;
21743;SDS011;11034;48.556;9.342;2024-03-02T13:35:32;2.95;;;1.77;;
21743;SDS011;11034;48.556;9.342;2024-03-02T13:38:02;2.80;;;1.50;;
21743;SDS011;11034;48.556;9.342;2024-03-02T13:40:30;1.52;;;1.00;;
21743;SDS011;11034;48.556;9.342;2024-03-02T13:43:02;1.20;;;0.93;;
21743;SDS011;11034;48.556;9.342;2024-03-02T13:45:30;1.00;;;0.80;;
21743;SDS011;11034;48.556;9.342;2024-03-02T13:47:59;1.08;;;0.80;;
21743;SDS011;11034;48.556;9.342;2024-03-02T13:50:28;2.28;;;1.13;;
21743;SDS011;11034;48.556;9.342;2024-03-02T13:52:56;1.40;;;1.13;;
21743;SDS011;11034;48.556;9.342;2024-03-02T13:55:26;2.15;;;1.25;;
21743;SDS011;11034;48.556;9.342;2024-03-02T13:57:54;1.85;;;1.27;;
21743;SDS011;11034;48.556;9.342;2024-03-02T14:00:22;2.03;;;1.40;;
21743;SDS011;11034;48.556;9.342;2024-03-02T14:02:51;1.75;;;1.10;;
21743;SDS011;11034;48.556;9.342;2024-03-02T14:05:19;1.50;;;1.20;;
21743;SDS011;11034;48.556;9.342;2024-03-02T14:07:48;1.52;;;1.30;;
21743;SDS011;11034;48.556;9.342;2024-03-02T14:10:16;2.38;;;1.30;;
21743;SDS011;11034;48.556;9.342;2024-03-02T14:12:50;2.45;;;1.42;;
21743;SDS011;11034;48.556;9.342;2024-03-02T14:15:18;3.25;;;1.60;;
21743;SDS011;11034;48.556;9.342;2024-03-02T14:17:47;2.17;;;1.67;;
21743;SDS011;11034;48.556;9.342;2024-03-02T14:20:15;1.90;;;1.40;;
21743;SDS011;11034;48.556;9.342;2024-03-02T14:22:48;2.15;;;1.40;;
21743;SDS011;11034;48.556;9.342;2024-03-02T14:25:17;2.75;;;1.60;;
21743;SDS011;11034;48.556;9.342;2024-03-02T14:27:45;1.63;;;1.40;;
21743;SDS011;11034;48.556;9.342;2024-03-02T14:30:35;1.85;;;1.52;;
21743;SDS011;11034;48.556;9.342;2024-03-02T14:33:03;1.77;;;1.30;;
21743;SDS011;11034;48.556;9.342;2024-03-02T14:35:32;1.98;;;1.45;;
21743;SDS011;11034;48.556;9.342;2024-03-02T14:38:00;4.38;;;1.40;;
21743;SDS011;11034;48.556;9.342;2024-03-02T14:40:29;2.08;;;1.10;;
21743;SDS011;11034;48.556;9.342;2024-03-02T14:42:57;1.45;;;0.98;;
21743;SDS011;11034;48.556;9.342;2024-03-02T14:45:25;3.22;;;1.42;;
21743;SDS011;11034;48.556;9.342;2024-03-02T14:47:55;1.38;;;1.17;;
21743;SDS011;11034;48.556;9.342;2024-03-02T14:50:26;1.90;;;1.02;;
21743;SDS011;11034;48.556;9.342;2024-03-02T14:52:54;2.55;;;1.10;;